sensor_id;sensor_type;location;lat;lon;timestamp;P1;durP1;ratioP1;P2;durP2;ratioP2
11338;SDS011;5724;42.684;23.252;2023-06-26T00:00:17;21.83;;;20.15;;
11338;SDS011;5724;42.684;23.252;2023-06-26T00:02:43;22.27;;;20.08;;
11338;SDS011;5724;42.684;23.252;2023-06-26T00:05:08;21.58;;;19.70;;
11338;SDS011;5724;42.684;23.252;2023-06-26T00:07:34;21.20;;;19.42;;
11338;SDS011;5724;42.684;23.252;2023-06-26T00:10:00;20.75;;;18.85;;
11338;SDS011;5724;42.684;23.252;2023-06-26T00:12:28;20.08;;;18.33;;
11338;SDS011;5724;42.684;23.252;2023-06-26T00:14:54;20.77;;;18.92;;
11338;SDS011;5724;42.684;23.252;2023-06-26T00:17:19;19.48;;;17.83;;
11338;SDS011;5724;42.684;23.252;2023-06-26T00:19:45;20.48;;;18.58;;
11338;SDS011;5724;42.684;23.252;2023-06-26T00:22:11;20.02;;;18.42;;
11338;SDS011;5724;42.684;23.252;2023-06-26T00:24:36;19.42;;;17.83;;
11338;SDS011;5724;42.684;23.252;2023-06-26T00:27:02;19.15;;;17.42;;
11338;SDS011;5724;42.684;23.252;2023-06-26T00:29:27;19.83;;;18.23;;
11338;SDS011;5724;42.684;23.252;2023-06-26T00:31:53;19.73;;;18.10;;
11338;SDS011;5724;42.684;23.252;2023-06-26T00:34:18;18.38;;;16.98;;
11338;SDS011;5724;42.684;23.252;2023-06-26T00:36:44;17.70;;;16.25;;
11338;SDS011;5724;42.684;23.252;2023-06-26T00:39:10;18.33;;;16.88;;
11338;SDS011;5724;42.684;23.252;2023-06-26T00:41:39;18.38;;;16.88;;
11338;SDS011;5724;42.684;23.252;2023-06-26T00:44:05;17.83;;;16.40;;
11338;SDS011;5724;42.684;23.252;2023-06-26T00:46:31;18.00;;;16.45;;
11338;SDS011;5724;42.684;23.252;2023-06-26T00:48:58;18.13;;;16.70;;
11338;SDS011;5724;42.684;23.252;2023-06-26T00:51:26;18.10;;;16.42;;
11338;SDS011;5724;42.684;23.252;2023-06-26T00:53:53;16.55;;;15.32;;
11338;SDS011;5724;42.684;23.252;2023-06-26T00:56:19;17.58;;;16.25;;
11338;SDS011;5724;42.684;23.252;2023-06-26T00:58:45;17.75;;;16.35;;
11338;SDS011;5724;42.684;23.252;2023-06-26T01:01:11;17.33;;;15.77;;
11338;SDS011;5724;42.684;23.252;2023-06-26T01:03:41;16.83;;;15.45;;
11338;SDS011;5724;42.684;23.252;2023-06-26T01:06:11;16.15;;;14.95;;
11338;SDS011;5724;42.684;23.252;2023-06-26T01:08:38;17.27;;;15.77;;
11338;SDS011;5724;42.684;23.252;2023-06-26T01:11:06;16.58;;;15.18;;
11338;SDS011;5724;42.684;23.252;2023-06-26T01:13:32;16.30;;;15.00;;
11338;SDS011;5724;42.684;23.252;2023-06-26T01:15:58;16.52;;;15.13;;
11338;SDS011;5724;42.684;23.252;2023-06-26T01:18:25;16.48;;;15.20;;
11338;SDS011;5724;42.684;23.252;2023-06-26T01:20:51;16.30;;;15.00;;
11338;SDS011;5724;42.684;23.252;2023-06-26T01:23:20;17.95;;;16.58;;
11338;SDS011;5724;42.684;23.252;2023-06-26T01:28:33;18.00;;;16.77;;
11338;SDS011;5724;42.684;23.252;2023-06-26T01:31:01;17.35;;;15.82;;
11338;SDS011;5724;42.684;23.252;2023-06-26T01:33:27;18.35;;;16.63;;
11338;SDS011;5724;42.684;23.252;2023-06-26T01:35:53;18.15;;;16.65;;
11338;SDS011;5724;42.684;23.252;2023-06-26T01:38:20;18.13;;;16.52;;
11338;SDS011;5724;42.684;23.252;2023-06-26T01:40:48;17.48;;;15.93;;
11338;SDS011;5724;42.684;23.252;2023-06-26T01:46:06;17.85;;;16.55;;
11338;SDS011;5724;42.684;23.252;2023-06-26T01:49:39;17.75;;;16.27;;
11338;SDS011;5724;42.684;23.252;2023-06-26T01:52:27;18.00;;;16.67;;
11338;SDS011;5724;42.684;23.252;2023-06-26T01:54:39;16.60;;;15.35;;
11338;SDS011;5724;42.684;23.252;2023-06-26T01:57:12;17.85;;;16.23;;
11338;SDS011;5724;42.684;23.252;2023-06-26T01:59:38;17.48;;;16.17;;
11338;SDS011;5724;42.684;23.252;2023-06-26T02:02:08;17.67;;;16.20;;
11338;SDS011;5724;42.684;23.252;2023-06-26T02:04:34;17.00;;;15.77;;
11338;SDS011;5724;42.684;23.252;2023-06-26T02:06:59;17.83;;;16.52;;
11338;SDS011;5724;42.684;23.252;2023-06-26T02:09:25;17.73;;;16.15;;
11338;SDS011;5724;42.684;23.252;2023-06-26T02:11:51;17.60;;;16.25;;
11338;SDS011;5724;42.684;23.252;2023-06-26T02:14:16;18.52;;;17.05;;
11338;SDS011;5724;42.684;23.252;2023-06-26T02:16:41;16.58;;;15.32;;
11338;SDS011;5724;42.684;23.252;2023-06-26T02:19:07;18.48;;;17.08;;
11338;SDS011;5724;42.684;23.252;2023-06-26T02:21:32;18.85;;;17.40;;
11338;SDS011;5724;42.684;23.252;2023-06-26T02:23:58;19.92;;;18.40;;
11338;SDS011;5724;42.684;23.252;2023-06-26T02:26:23;18.73;;;17.25;;
11338;SDS011;5724;42.684;23.252;2023-06-26T02:28:49;21.10;;;19.17;;
11338;SDS011;5724;42.684;23.252;2023-06-26T02:31:15;18.52;;;16.98;;
11338;SDS011;5724;42.684;23.252;2023-06-26T02:33:41;19.95;;;18.45;;
11338;SDS011;5724;42.684;23.252;2023-06-26T02:36:07;19.48;;;17.95;;
11338;SDS011;5724;42.684;23.252;2023-06-26T02:38:33;19.25;;;17.75;;
11338;SDS011;5724;42.684;23.252;2023-06-26T02:40:58;19.50;;;18.10;;
11338;SDS011;5724;42.684;23.252;2023-06-26T02:43:23;21.30;;;19.58;;
11338;SDS011;5724;42.684;23.252;2023-06-26T02:45:49;21.48;;;19.52;;
11338;SDS011;5724;42.684;23.252;2023-06-26T02:48:15;20.08;;;18.27;;
11338;SDS011;5724;42.684;23.252;2023-06-26T02:50:40;21.45;;;19.55;;
11338;SDS011;5724;42.684;23.252;2023-06-26T02:53:05;21.63;;;19.83;;
11338;SDS011;5724;42.684;23.252;2023-06-26T02:55:31;21.85;;;20.23;;
11338;SDS011;5724;42.684;23.252;2023-06-26T02:57:57;21.65;;;20.05;;
11338;SDS011;5724;42.684;23.252;2023-06-26T03:00:23;21.67;;;19.83;;
11338;SDS011;5724;42.684;23.252;2023-06-26T03:02:49;21.88;;;20.20;;
11338;SDS011;5724;42.684;23.252;2023-06-26T03:05:14;22.70;;;20.83;;
11338;SDS011;5724;42.684;23.252;2023-06-26T03:07:39;21.95;;;20.20;;
11338;SDS011;5724;42.684;23.252;2023-06-26T03:10:05;22.02;;;20.42;;
11338;SDS011;5724;42.684;23.252;2023-06-26T03:12:31;23.48;;;21.67;;
11338;SDS011;5724;42.684;23.252;2023-06-26T03:14:56;23.15;;;21.35;;
11338;SDS011;5724;42.684;23.252;2023-06-26T03:17:22;23.67;;;21.92;;
11338;SDS011;5724;42.684;23.252;2023-06-26T03:19:47;25.05;;;23.15;;
11338;SDS011;5724;42.684;23.252;2023-06-26T03:22:13;22.90;;;21.10;;
11338;SDS011;5724;42.684;23.252;2023-06-26T03:24:39;24.60;;;22.88;;
11338;SDS011;5724;42.684;23.252;2023-06-26T03:27:04;25.30;;;23.30;;
11338;SDS011;5724;42.684;23.252;2023-06-26T03:29:30;25.85;;;23.83;;
11338;SDS011;5724;42.684;23.252;2023-06-26T03:31:55;24.50;;;22.70;;
11338;SDS011;5724;42.684;23.252;2023-06-26T03:34:21;24.35;;;22.30;;
11338;SDS011;5724;42.684;23.252;2023-06-26T03:36:46;24.25;;;22.15;;
11338;SDS011;5724;42.684;23.252;2023-06-26T03:39:12;25.20;;;23.17;;
11338;SDS011;5724;42.684;23.252;2023-06-26T03:41:37;23.42;;;21.67;;
11338;SDS011;5724;42.684;23.252;2023-06-26T03:44:03;23.92;;;21.95;;
11338;SDS011;5724;42.684;23.252;2023-06-26T03:46:29;24.85;;;22.75;;
11338;SDS011;5724;42.684;23.252;2023-06-26T03:48:54;23.00;;;21.35;;
11338;SDS011;5724;42.684;23.252;2023-06-26T03:51:19;23.23;;;21.48;;
11338;SDS011;5724;42.684;23.252;2023-06-26T03:53:45;23.65;;;21.92;;
11338;SDS011;5724;42.684;23.252;2023-06-26T03:56:10;24.13;;;21.92;;
11338;SDS011;5724;42.684;23.252;2023-06-26T03:58:36;24.80;;;22.75;;
11338;SDS011;5724;42.684;23.252;2023-06-26T04:01:01;24.25;;;22.40;;
11338;SDS011;5724;42.684;23.252;2023-06-26T04:03:27;23.08;;;21.38;;
11338;SDS011;5724;42.684;23.252;2023-06-26T04:05:52;21.65;;;19.90;;
11338;SDS011;5724;42.684;23.252;2023-06-26T04:08:18;22.65;;;20.60;;
11338;SDS011;5724;42.684;23.252;2023-06-26T04:10:44;23.67;;;21.55;;
11338;SDS011;5724;42.684;23.252;2023-06-26T04:13:10;22.08;;;20.38;;
11338;SDS011;5724;42.684;23.252;2023-06-26T04:15:37;22.13;;;20.35;;
11338;SDS011;5724;42.684;23.252;2023-06-26T04:18:02;21.92;;;20.17;;
11338;SDS011;5724;42.684;23.252;2023-06-26T04:20:28;21.60;;;19.92;;
11338;SDS011;5724;42.684;23.252;2023-06-26T04:22:53;20.75;;;19.20;;
11338;SDS011;5724;42.684;23.252;2023-06-26T04:25:19;22.00;;;20.38;;
11338;SDS011;5724;42.684;23.252;2023-06-26T04:27:44;22.48;;;20.60;;
11338;SDS011;5724;42.684;23.252;2023-06-26T04:30:10;21.25;;;19.75;;
11338;SDS011;5724;42.684;23.252;2023-06-26T04:32:37;20.38;;;19.08;;
11338;SDS011;5724;42.684;23.252;2023-06-26T04:35:03;21.35;;;19.75;;
11338;SDS011;5724;42.684;23.252;2023-06-26T04:37:28;20.90;;;19.40;;
11338;SDS011;5724;42.684;23.252;2023-06-26T04:39:54;21.98;;;20.00;;
11338;SDS011;5724;42.684;23.252;2023-06-26T04:42:19;21.48;;;19.98;;
11338;SDS011;5724;42.684;23.252;2023-06-26T04:44:46;21.42;;;19.88;;
11338;SDS011;5724;42.684;23.252;2023-06-26T04:47:12;21.85;;;19.70;;
11338;SDS011;5724;42.684;23.252;2023-06-26T04:49:40;20.27;;;18.65;;
11338;SDS011;5724;42.684;23.252;2023-06-26T04:52:08;20.63;;;19.13;;
11338;SDS011;5724;42.684;23.252;2023-06-26T04:54:33;20.10;;;18.70;;
11338;SDS011;5724;42.684;23.252;2023-06-26T04:56:59;20.35;;;18.95;;
11338;SDS011;5724;42.684;23.252;2023-06-26T04:59:25;19.73;;;18.23;;
11338;SDS011;5724;42.684;23.252;2023-06-26T05:01:50;20.38;;;18.42;;
11338;SDS011;5724;42.684;23.252;2023-06-26T05:04:16;20.42;;;18.98;;
11338;SDS011;5724;42.684;23.252;2023-06-26T05:06:41;20.33;;;18.75;;
11338;SDS011;5724;42.684;23.252;2023-06-26T05:09:07;19.95;;;18.45;;
11338;SDS011;5724;42.684;23.252;2023-06-26T05:11:33;20.23;;;18.48;;
11338;SDS011;5724;42.684;23.252;2023-06-26T05:13:58;20.05;;;18.25;;
11338;SDS011;5724;42.684;23.252;2023-06-26T05:16:24;19.65;;;18.25;;
11338;SDS011;5724;42.684;23.252;2023-06-26T05:18:49;18.77;;;17.48;;
11338;SDS011;5724;42.684;23.252;2023-06-26T05:21:15;19.35;;;17.83;;
11338;SDS011;5724;42.684;23.252;2023-06-26T05:23:43;18.27;;;17.05;;
11338;SDS011;5724;42.684;23.252;2023-06-26T05:26:11;18.70;;;17.10;;
11338;SDS011;5724;42.684;23.252;2023-06-26T05:28:38;19.02;;;17.23;;
11338;SDS011;5724;42.684;23.252;2023-06-26T05:31:05;18.25;;;16.95;;
11338;SDS011;5724;42.684;23.252;2023-06-26T05:33:31;18.70;;;17.20;;
11338;SDS011;5724;42.684;23.252;2023-06-26T05:36:01;17.42;;;16.05;;
11338;SDS011;5724;42.684;23.252;2023-06-26T05:38:29;18.98;;;17.45;;
11338;SDS011;5724;42.684;23.252;2023-06-26T05:40:55;18.35;;;17.05;;
11338;SDS011;5724;42.684;23.252;2023-06-26T05:43:21;17.92;;;16.63;;
11338;SDS011;5724;42.684;23.252;2023-06-26T05:45:47;18.58;;;16.98;;
11338;SDS011;5724;42.684;23.252;2023-06-26T05:48:13;17.05;;;15.95;;
11338;SDS011;5724;42.684;23.252;2023-06-26T05:50:39;18.00;;;16.70;;
11338;SDS011;5724;42.684;23.252;2023-06-26T05:53:07;17.38;;;16.15;;
11338;SDS011;5724;42.684;23.252;2023-06-26T05:55:33;17.98;;;16.58;;
11338;SDS011;5724;42.684;23.252;2023-06-26T05:57:58;18.40;;;17.00;;
11338;SDS011;5724;42.684;23.252;2023-06-26T06:00:26;19.67;;;18.00;;
11338;SDS011;5724;42.684;23.252;2023-06-26T06:02:52;18.08;;;16.60;;
11338;SDS011;5724;42.684;23.252;2023-06-26T06:05:21;16.92;;;15.73;;
11338;SDS011;5724;42.684;23.252;2023-06-26T06:07:48;16.63;;;15.35;;
11338;SDS011;5724;42.684;23.252;2023-06-26T06:10:13;17.17;;;15.88;;
11338;SDS011;5724;42.684;23.252;2023-06-26T06:12:39;16.77;;;15.02;;
11338;SDS011;5724;42.684;23.252;2023-06-26T06:15:05;17.27;;;15.95;;
11338;SDS011;5724;42.684;23.252;2023-06-26T06:17:31;17.60;;;16.08;;
11338;SDS011;5724;42.684;23.252;2023-06-26T06:19:56;16.60;;;15.55;;
11338;SDS011;5724;42.684;23.252;2023-06-26T06:22:22;16.67;;;15.48;;
11338;SDS011;5724;42.684;23.252;2023-06-26T06:24:48;16.55;;;15.35;;
11338;SDS011;5724;42.684;23.252;2023-06-26T06:27:14;15.65;;;14.65;;
11338;SDS011;5724;42.684;23.252;2023-06-26T06:29:39;17.08;;;15.95;;
11338;SDS011;5724;42.684;23.252;2023-06-26T06:32:05;18.00;;;16.75;;
11338;SDS011;5724;42.684;23.252;2023-06-26T06:34:31;17.60;;;16.20;;
11338;SDS011;5724;42.684;23.252;2023-06-26T06:36:57;17.50;;;15.85;;
11338;SDS011;5724;42.684;23.252;2023-06-26T06:39:22;16.40;;;15.30;;
11338;SDS011;5724;42.684;23.252;2023-06-26T06:41:48;15.60;;;14.63;;
11338;SDS011;5724;42.684;23.252;2023-06-26T06:44:13;14.63;;;13.63;;
11338;SDS011;5724;42.684;23.252;2023-06-26T06:46:39;15.10;;;14.20;;
11338;SDS011;5724;42.684;23.252;2023-06-26T06:49:04;13.40;;;12.60;;
11338;SDS011;5724;42.684;23.252;2023-06-26T06:51:30;13.68;;;12.77;;
11338;SDS011;5724;42.684;23.252;2023-06-26T06:53:56;12.70;;;11.63;;
11338;SDS011;5724;42.684;23.252;2023-06-26T06:56:21;11.88;;;11.25;;
11338;SDS011;5724;42.684;23.252;2023-06-26T06:58:47;11.50;;;10.85;;
11338;SDS011;5724;42.684;23.252;2023-06-26T07:01:12;12.82;;;11.90;;
11338;SDS011;5724;42.684;23.252;2023-06-26T07:03:38;12.63;;;11.93;;
11338;SDS011;5724;42.684;23.252;2023-06-26T07:06:05;11.65;;;10.95;;
11338;SDS011;5724;42.684;23.252;2023-06-26T07:08:30;12.63;;;11.75;;
11338;SDS011;5724;42.684;23.252;2023-06-26T07:10:56;11.13;;;10.45;;
11338;SDS011;5724;42.684;23.252;2023-06-26T07:13:22;11.68;;;10.98;;
11338;SDS011;5724;42.684;23.252;2023-06-26T07:15:47;12.18;;;11.48;;
11338;SDS011;5724;42.684;23.252;2023-06-26T07:18:13;11.95;;;11.15;;
11338;SDS011;5724;42.684;23.252;2023-06-26T07:20:39;11.63;;;10.73;;
11338;SDS011;5724;42.684;23.252;2023-06-26T07:23:05;10.93;;;10.13;;
11338;SDS011;5724;42.684;23.252;2023-06-26T07:25:30;10.57;;;9.98;;
11338;SDS011;5724;42.684;23.252;2023-06-26T07:27:55;10.60;;;10.00;;
11338;SDS011;5724;42.684;23.252;2023-06-26T07:30:21;10.25;;;9.65;;
11338;SDS011;5724;42.684;23.252;2023-06-26T07:32:46;10.07;;;9.57;;
11338;SDS011;5724;42.684;23.252;2023-06-26T07:35:12;10.75;;;10.13;;
11338;SDS011;5724;42.684;23.252;2023-06-26T07:37:37;10.48;;;9.88;;
11338;SDS011;5724;42.684;23.252;2023-06-26T07:40:03;8.75;;;8.15;;
11338;SDS011;5724;42.684;23.252;2023-06-26T07:42:29;9.80;;;9.20;;
11338;SDS011;5724;42.684;23.252;2023-06-26T07:44:54;9.85;;;9.13;;
11338;SDS011;5724;42.684;23.252;2023-06-26T07:47:20;11.15;;;10.05;;
11338;SDS011;5724;42.684;23.252;2023-06-26T07:49:45;9.38;;;8.68;;
11338;SDS011;5724;42.684;23.252;2023-06-26T07:52:11;9.23;;;8.63;;
11338;SDS011;5724;42.684;23.252;2023-06-26T07:54:36;8.43;;;7.85;;
11338;SDS011;5724;42.684;23.252;2023-06-26T07:57:03;8.45;;;8.05;;
11338;SDS011;5724;42.684;23.252;2023-06-26T07:59:32;8.35;;;8.00;;
11338;SDS011;5724;42.684;23.252;2023-06-26T08:01:58;8.10;;;7.43;;
11338;SDS011;5724;42.684;23.252;2023-06-26T08:04:25;7.90;;;7.25;;
11338;SDS011;5724;42.684;23.252;2023-06-26T08:06:52;8.70;;;7.80;;
11338;SDS011;5724;42.684;23.252;2023-06-26T08:09:21;7.88;;;7.15;;
11338;SDS011;5724;42.684;23.252;2023-06-26T08:11:48;7.15;;;6.82;;
11338;SDS011;5724;42.684;23.252;2023-06-26T08:14:13;7.05;;;6.63;;
11338;SDS011;5724;42.684;23.252;2023-06-26T08:16:40;7.38;;;6.88;;
11338;SDS011;5724;42.684;23.252;2023-06-26T08:19:07;6.78;;;6.40;;
11338;SDS011;5724;42.684;23.252;2023-06-26T08:21:33;7.45;;;6.85;;
11338;SDS011;5724;42.684;23.252;2023-06-26T08:23:58;6.50;;;6.07;;
11338;SDS011;5724;42.684;23.252;2023-06-26T08:26:24;6.75;;;6.32;;
11338;SDS011;5724;42.684;23.252;2023-06-26T08:28:49;6.22;;;5.90;;
11338;SDS011;5724;42.684;23.252;2023-06-26T08:31:15;6.78;;;6.40;;
11338;SDS011;5724;42.684;23.252;2023-06-26T08:33:41;6.38;;;5.72;;
11338;SDS011;5724;42.684;23.252;2023-06-26T08:36:07;5.78;;;5.38;;
11338;SDS011;5724;42.684;23.252;2023-06-26T08:38:32;6.00;;;5.60;;
11338;SDS011;5724;42.684;23.252;2023-06-26T08:40:58;6.25;;;5.85;;
11338;SDS011;5724;42.684;23.252;2023-06-26T08:43:23;6.63;;;6.22;;
11338;SDS011;5724;42.684;23.252;2023-06-26T08:45:49;6.50;;;6.00;;
11338;SDS011;5724;42.684;23.252;2023-06-26T08:48:16;5.65;;;5.30;;
11338;SDS011;5724;42.684;23.252;2023-06-26T08:50:44;6.20;;;5.80;;
11338;SDS011;5724;42.684;23.252;2023-06-26T08:53:23;6.32;;;5.93;;
11338;SDS011;5724;42.684;23.252;2023-06-26T08:56:09;6.47;;;6.07;;
11338;SDS011;5724;42.684;23.252;2023-06-26T08:58:39;6.25;;;5.95;;
11338;SDS011;5724;42.684;23.252;2023-06-26T09:01:05;6.10;;;5.70;;
11338;SDS011;5724;42.684;23.252;2023-06-26T09:03:31;5.88;;;5.45;;
11338;SDS011;5724;42.684;23.252;2023-06-26T09:05:57;6.20;;;5.50;;
11338;SDS011;5724;42.684;23.252;2023-06-26T09:08:22;5.32;;;5.03;;
11338;SDS011;5724;42.684;23.252;2023-06-26T09:10:48;5.88;;;5.57;;
11338;SDS011;5724;42.684;23.252;2023-06-26T09:13:13;5.63;;;5.32;;
11338;SDS011;5724;42.684;23.252;2023-06-26T09:15:42;5.93;;;5.50;;
11338;SDS011;5724;42.684;23.252;2023-06-26T09:18:12;6.13;;;5.82;;
11338;SDS011;5724;42.684;23.252;2023-06-26T09:20:42;6.10;;;5.80;;
11338;SDS011;5724;42.684;23.252;2023-06-26T09:23:07;6.53;;;5.95;;
11338;SDS011;5724;42.684;23.252;2023-06-26T09:25:33;7.05;;;6.28;;
11338;SDS011;5724;42.684;23.252;2023-06-26T09:28:04;6.65;;;6.25;;
11338;SDS011;5724;42.684;23.252;2023-06-26T09:30:31;5.88;;;5.65;;
11338;SDS011;5724;42.684;23.252;2023-06-26T09:32:57;6.15;;;5.63;;
11338;SDS011;5724;42.684;23.252;2023-06-26T09:35:23;5.65;;;5.45;;
11338;SDS011;5724;42.684;23.252;2023-06-26T09:37:50;5.88;;;5.47;;
11338;SDS011;5724;42.684;23.252;2023-06-26T09:40:15;6.22;;;5.60;;
11338;SDS011;5724;42.684;23.252;2023-06-26T09:42:41;5.28;;;4.88;;
11338;SDS011;5724;42.684;23.252;2023-06-26T09:45:07;4.95;;;4.75;;
11338;SDS011;5724;42.684;23.252;2023-06-26T09:47:33;5.75;;;5.00;;
11338;SDS011;5724;42.684;23.252;2023-06-26T09:50:00;5.38;;;5.10;;
11338;SDS011;5724;42.684;23.252;2023-06-26T09:52:27;5.40;;;5.20;;
11338;SDS011;5724;42.684;23.252;2023-06-26T09:55:08;5.78;;;5.57;;
11338;SDS011;5724;42.684;23.252;2023-06-26T09:57:35;5.57;;;5.28;;
11338;SDS011;5724;42.684;23.252;2023-06-26T10:00:02;7.47;;;5.38;;
11338;SDS011;5724;42.684;23.252;2023-06-26T10:02:28;5.35;;;4.95;;
11338;SDS011;5724;42.684;23.252;2023-06-26T10:04:53;5.57;;;5.28;;
11338;SDS011;5724;42.684;23.252;2023-06-26T10:07:18;5.18;;;4.78;;
11338;SDS011;5724;42.684;23.252;2023-06-26T10:09:45;6.00;;;5.57;;
11338;SDS011;5724;42.684;23.252;2023-06-26T10:12:23;5.43;;;5.10;;
11338;SDS011;5724;42.684;23.252;2023-06-26T10:14:53;5.82;;;5.43;;
11338;SDS011;5724;42.684;23.252;2023-06-26T10:17:20;5.72;;;5.25;;
11338;SDS011;5724;42.684;23.252;2023-06-26T10:19:47;6.00;;;5.70;;
11338;SDS011;5724;42.684;23.252;2023-06-26T10:22:16;5.78;;;5.47;;
11338;SDS011;5724;42.684;23.252;2023-06-26T10:24:43;5.97;;;5.68;;
11338;SDS011;5724;42.684;23.252;2023-06-26T10:27:21;5.70;;;5.30;;
11338;SDS011;5724;42.684;23.252;2023-06-26T10:29:53;5.90;;;5.60;;
11338;SDS011;5724;42.684;23.252;2023-06-26T10:32:24;6.45;;;6.05;;
11338;SDS011;5724;42.684;23.252;2023-06-26T10:34:51;5.78;;;5.38;;
11338;SDS011;5724;42.684;23.252;2023-06-26T10:37:18;5.50;;;5.20;;
11338;SDS011;5724;42.684;23.252;2023-06-26T10:39:50;5.30;;;4.97;;
11338;SDS011;5724;42.684;23.252;2023-06-26T10:42:19;5.63;;;5.10;;
11338;SDS011;5724;42.684;23.252;2023-06-26T10:44:59;5.88;;;5.68;;
11338;SDS011;5724;42.684;23.252;2023-06-26T10:47:35;5.75;;;5.45;;
11338;SDS011;5724;42.684;23.252;2023-06-26T10:53:09;5.93;;;5.53;;
11338;SDS011;5724;42.684;23.252;2023-06-26T10:56:01;6.18;;;5.63;;
11338;SDS011;5724;42.684;23.252;2023-06-26T11:01:19;6.07;;;5.57;;
11338;SDS011;5724;42.684;23.252;2023-06-26T11:04:04;6.57;;;6.05;;
11338;SDS011;5724;42.684;23.252;2023-06-26T11:06:31;5.88;;;5.43;;
11338;SDS011;5724;42.684;23.252;2023-06-26T11:14:18;6.28;;;5.78;;
11338;SDS011;5724;42.684;23.252;2023-06-26T11:16:45;5.97;;;5.65;;
11338;SDS011;5724;42.684;23.252;2023-06-26T11:19:12;7.45;;;5.97;;
11338;SDS011;5724;42.684;23.252;2023-06-26T11:21:39;8.60;;;5.97;;
11338;SDS011;5724;42.684;23.252;2023-06-26T11:24:08;6.10;;;5.57;;
11338;SDS011;5724;42.684;23.252;2023-06-26T11:26:37;5.20;;;4.88;;
11338;SDS011;5724;42.684;23.252;2023-06-26T11:29:04;5.82;;;5.43;;
11338;SDS011;5724;42.684;23.252;2023-06-26T11:31:31;5.45;;;5.05;;
11338;SDS011;5724;42.684;23.252;2023-06-26T11:33:58;5.70;;;5.00;;
11338;SDS011;5724;42.684;23.252;2023-06-26T11:36:26;5.80;;;5.30;;
11338;SDS011;5724;42.684;23.252;2023-06-26T11:38:53;5.85;;;5.32;;
11338;SDS011;5724;42.684;23.252;2023-06-26T11:41:22;6.28;;;5.97;;
11338;SDS011;5724;42.684;23.252;2023-06-26T11:43:49;6.25;;;5.85;;
11338;SDS011;5724;42.684;23.252;2023-06-26T11:46:16;6.80;;;6.38;;
11338;SDS011;5724;42.684;23.252;2023-06-26T11:48:43;5.72;;;5.43;;
11338;SDS011;5724;42.684;23.252;2023-06-26T11:51:08;6.30;;;5.78;;
11338;SDS011;5724;42.684;23.252;2023-06-26T11:53:40;6.38;;;6.07;;
11338;SDS011;5724;42.684;23.252;2023-06-26T11:56:13;6.53;;;6.13;;
11338;SDS011;5724;42.684;23.252;2023-06-26T12:01:26;5.57;;;5.18;;
11338;SDS011;5724;42.684;23.252;2023-06-26T12:03:54;5.80;;;5.40;;
11338;SDS011;5724;42.684;23.252;2023-06-26T12:06:23;6.57;;;6.03;;
11338;SDS011;5724;42.684;23.252;2023-06-26T12:08:49;5.80;;;5.50;;
11338;SDS011;5724;42.684;23.252;2023-06-26T12:11:15;5.72;;;5.43;;
11338;SDS011;5724;42.684;23.252;2023-06-26T12:13:42;6.18;;;5.68;;
11338;SDS011;5724;42.684;23.252;2023-06-26T12:16:08;5.72;;;5.32;;
11338;SDS011;5724;42.684;23.252;2023-06-26T12:18:34;9.02;;;5.25;;
11338;SDS011;5724;42.684;23.252;2023-06-26T12:21:00;5.97;;;5.45;;
11338;SDS011;5724;42.684;23.252;2023-06-26T12:23:33;6.13;;;5.72;;
11338;SDS011;5724;42.684;23.252;2023-06-26T12:26:19;5.40;;;5.20;;
11338;SDS011;5724;42.684;23.252;2023-06-26T12:28:45;5.95;;;5.40;;
11338;SDS011;5724;42.684;23.252;2023-06-26T12:31:14;6.63;;;5.78;;
11338;SDS011;5724;42.684;23.252;2023-06-26T12:33:42;6.72;;;6.22;;
11338;SDS011;5724;42.684;23.252;2023-06-26T12:36:14;6.00;;;5.70;;
11338;SDS011;5724;42.684;23.252;2023-06-26T12:38:40;5.53;;;5.22;;
11338;SDS011;5724;42.684;23.252;2023-06-26T12:41:15;6.05;;;5.70;;
11338;SDS011;5724;42.684;23.252;2023-06-26T12:43:41;5.57;;;5.28;;
11338;SDS011;5724;42.684;23.252;2023-06-26T12:46:07;5.53;;;5.22;;
11338;SDS011;5724;42.684;23.252;2023-06-26T12:48:37;7.00;;;5.72;;
11338;SDS011;5724;42.684;23.252;2023-06-26T12:51:10;6.35;;;5.70;;
11338;SDS011;5724;42.684;23.252;2023-06-26T12:53:36;6.68;;;6.18;;
11338;SDS011;5724;42.684;23.252;2023-06-26T12:56:02;6.93;;;6.38;;
11338;SDS011;5724;42.684;23.252;2023-06-26T12:58:28;6.40;;;5.90;;
11338;SDS011;5724;42.684;23.252;2023-06-26T13:00:53;8.15;;;6.35;;
11338;SDS011;5724;42.684;23.252;2023-06-26T13:03:19;7.55;;;6.03;;
11338;SDS011;5724;42.684;23.252;2023-06-26T13:05:46;7.53;;;6.68;;
11338;SDS011;5724;42.684;23.252;2023-06-26T13:08:12;6.47;;;5.97;;
11338;SDS011;5724;42.684;23.252;2023-06-26T13:10:39;6.07;;;5.68;;
11338;SDS011;5724;42.684;23.252;2023-06-26T13:13:05;6.65;;;6.15;;
11338;SDS011;5724;42.684;23.252;2023-06-26T13:15:30;6.38;;;6.07;;
11338;SDS011;5724;42.684;23.252;2023-06-26T13:17:56;5.90;;;5.50;;
11338;SDS011;5724;42.684;23.252;2023-06-26T13:20:21;6.05;;;5.70;;
11338;SDS011;5724;42.684;23.252;2023-06-26T13:22:46;6.50;;;6.03;;
11338;SDS011;5724;42.684;23.252;2023-06-26T13:25:13;9.10;;;5.70;;
11338;SDS011;5724;42.684;23.252;2023-06-26T13:27:38;5.10;;;4.90;;
11338;SDS011;5724;42.684;23.252;2023-06-26T13:30:04;5.82;;;5.30;;
11338;SDS011;5724;42.684;23.252;2023-06-26T13:32:30;4.93;;;4.53;;
11338;SDS011;5724;42.684;23.252;2023-06-26T13:34:55;5.53;;;5.13;;
11338;SDS011;5724;42.684;23.252;2023-06-26T13:37:22;4.82;;;4.63;;
11338;SDS011;5724;42.684;23.252;2023-06-26T13:39:47;8.38;;;4.97;;
11338;SDS011;5724;42.684;23.252;2023-06-26T13:42:15;6.05;;;4.88;;
11338;SDS011;5724;42.684;23.252;2023-06-26T13:44:41;5.55;;;5.25;;
11338;SDS011;5724;42.684;23.252;2023-06-26T13:47:07;6.93;;;5.15;;
11338;SDS011;5724;42.684;23.252;2023-06-26T13:49:33;5.57;;;5.30;;
11338;SDS011;5724;42.684;23.252;2023-06-26T13:51:58;5.72;;;5.20;;
11338;SDS011;5724;42.684;23.252;2023-06-26T13:54:24;5.85;;;5.35;;
11338;SDS011;5724;42.684;23.252;2023-06-26T13:56:49;5.07;;;4.88;;
11338;SDS011;5724;42.684;23.252;2023-06-26T13:59:15;5.68;;;5.40;;
11338;SDS011;5724;42.684;23.252;2023-06-26T14:01:40;6.10;;;5.60;;
11338;SDS011;5724;42.684;23.252;2023-06-26T14:04:09;5.90;;;5.38;;
11338;SDS011;5724;42.684;23.252;2023-06-26T14:06:34;9.00;;;5.95;;
11338;SDS011;5724;42.684;23.252;2023-06-26T14:09:00;5.65;;;5.43;;
11338;SDS011;5724;42.684;23.252;2023-06-26T14:11:25;5.93;;;5.35;;
11338;SDS011;5724;42.684;23.252;2023-06-26T14:13:51;5.72;;;5.43;;
11338;SDS011;5724;42.684;23.252;2023-06-26T14:16:16;5.72;;;5.43;;
11338;SDS011;5724;42.684;23.252;2023-06-26T14:18:43;5.20;;;4.93;;
11338;SDS011;5724;42.684;23.252;2023-06-26T14:21:09;5.40;;;5.10;;
11338;SDS011;5724;42.684;23.252;2023-06-26T14:23:35;6.05;;;5.45;;
11338;SDS011;5724;42.684;23.252;2023-06-26T14:26:00;5.70;;;5.40;;
11338;SDS011;5724;42.684;23.252;2023-06-26T14:28:26;5.80;;;5.40;;
11338;SDS011;5724;42.684;23.252;2023-06-26T14:30:52;5.55;;;5.18;;
11338;SDS011;5724;42.684;23.252;2023-06-26T14:33:22;6.20;;;5.60;;
11338;SDS011;5724;42.684;23.252;2023-06-26T14:35:47;5.72;;;5.22;;
11338;SDS011;5724;42.684;23.252;2023-06-26T14:38:13;5.28;;;4.97;;
11338;SDS011;5724;42.684;23.252;2023-06-26T14:40:38;9.15;;;5.18;;
11338;SDS011;5724;42.684;23.252;2023-06-26T14:43:04;5.78;;;5.25;;
11338;SDS011;5724;42.684;23.252;2023-06-26T14:45:29;5.43;;;5.05;;
11338;SDS011;5724;42.684;23.252;2023-06-26T14:47:55;5.85;;;5.28;;
11338;SDS011;5724;42.684;23.252;2023-06-26T14:50:20;4.85;;;4.65;;